Time;durP1;ratioP1;P1;durP2;ratioP2;P2;SDS_P1;SDS_P2;PMS_P1;PMS_P2;Temp;Humidity;BMP_temperature;BMP_pressure;BME280_temperature;BME280_humidity;BME280_pressure;Samples;Min_cycle;Max_cycle;Signal;HPM_P1;HPM_P2
2024/03/14 00:02:11;;;;;;;;;;;10.10;99.90;;;;;;5044684;28;19909;-61
2024/03/14 00:04:37;;;;;;;;;;;10.20;99.90;;;;;;5031444;28;19936;-61
2024/03/14 00:07:02;;;;;;;;;;;10.20;99.90;;;;;;5045730;28;20399;-61
2024/03/14 00:09:29;;;;;;;;;;;10.20;99.90;;;;;;5050010;28;19920;-61
2024/03/14 00:11:55;;;;;;;;;;;10.20;99.90;;;;;;5031627;28;19955;-60
2024/03/14 00:14:21;;;;;;;;;;;10.20;99.90;;;;;;5039448;28;20385;-60
2024/03/14 00:16:46;;;;;;;;;;;10.20;99.90;;;;;;5031345;28;19982;-60
2024/03/14 00:19:12;;;;;;;;;;;10.20;99.90;;;;;;5046215;28;20356;-61
2024/03/14 00:21:39;;;;;;;;;;;10.20;99.90;;;;;;5042883;28;19950;-60
2024/03/14 00:24:06;;;;;;;;;;;10.20;99.90;;;;;;5042918;28;19942;-61
2024/03/14 00:26:32;;;;;;;;;;;10.20;99.90;;;;;;5040856;28;19917;-60
2024/03/14 00:28:58;;;;;;;;;;;10.20;99.90;;;;;;5030704;28;19982;-60
2024/03/14 00:31:24;;;;;;;;;;;10.10;99.90;;;;;;5030774;28;20423;-60
2024/03/14 00:33:50;;;;;;;;;;;10.10;99.90;;;;;;5030125;28;20297;-60
2024/03/14 00:36:15;;;;;;;;;;;10.10;99.90;;;;;;5038987;28;19909;-59
2024/03/14 00:38:41;;;;;;;;;;;10.10;99.90;;;;;;5030188;28;19980;-61
2024/03/14 00:41:13;;;;;;;;;;;10.10;99.90;;;;;;5045663;28;20368;-60
2024/03/14 00:43:39;;;;;;;;;;;10.10;99.90;;;;;;5031439;28;20059;-60
2024/03/14 00:46:05;;;;;;;;;;;10.10;99.90;;;;;;5036695;28;19999;-61
2024/03/14 00:48:32;;;;;;;;;;;10.10;99.90;;;;;;5032242;28;19924;-60
2024/03/14 00:50:58;;;;;;;;;;;10.00;99.90;;;;;;5039267;28;20208;-60
2024/03/14 00:53:24;;;;;;;;;;;10.00;99.90;;;;;;5038921;28;20144;-60
2024/03/14 00:55:49;;;;;;;;;;;10.00;99.90;;;;;;5038836;28;20300;-61
2024/03/14 00:58:15;;;;;;;;;;;10.00;99.90;;;;;;5045720;28;19915;-60
2024/03/14 01:00:41;;;;;;;;;;;10.00;99.90;;;;;;5039231;28;19968;-60
2024/03/14 01:03:08;;;;;;;;;;;10.00;99.90;;;;;;5030356;28;19959;-60
2024/03/14 01:05:34;;;;;;;;;;;10.00;99.90;;;;;;5038428;28;20183;-59
2024/03/14 01:08:00;;;;;;;;;;;9.90;99.90;;;;;;5035044;28;19925;-59
2024/03/14 01:10:25;;;;;;;;;;;9.90;99.90;;;;;;5032970;28;19908;-60
2024/03/14 01:12:51;;;;;;;;;;;10.00;99.90;;;;;;5030306;28;20335;-60
2024/03/14 01:15:18;;;;;;;;;;;10.00;99.90;;;;;;5030046;28;19943;-60
2024/03/14 01:17:43;;;;;;;;;;;9.90;99.90;;;;;;5040896;28;19915;-59
2024/03/14 01:20:15;;;;;;;;;;;9.90;99.90;;;;;;5035243;28;19913;-60
2024/03/14 01:22:41;;;;;;;;;;;9.90;99.90;;;;;;5030007;28;20034;-59
2024/03/14 01:25:07;;;;;;;;;;;9.90;99.90;;;;;;5038225;28;20391;-60
2024/03/14 01:27:32;;;;;;;;;;;9.90;99.90;;;;;;5037864;28;19908;-59
2024/03/14 01:29:58;;;;;;;;;;;9.80;99.90;;;;;;5037904;28;19913;-59
2024/03/14 01:32:24;;;;;;;;;;;9.90;99.90;;;;;;5030010;28;19993;-59
2024/03/14 01:34:50;;;;;;;;;;;9.80;99.90;;;;;;5037746;28;20000;-59
2024/03/14 01:37:15;;;;;;;;;;;9.80;99.90;;;;;;5029767;28;20397;-59
2024/03/14 01:39:41;;;;;;;;;;;9.80;99.90;;;;;;5040294;28;20408;-59
2024/03/14 01:42:06;;;;;;;;;;;9.80;99.90;;;;;;5035259;28;20006;-61
2024/03/14 01:44:52;;;;;;;;;;;9.80;99.90;;;;;;5030863;28;19917;-61
2024/03/14 01:47:18;;;;;;;;;;;9.80;99.90;;;;;;5033331;28;19943;-60
2024/03/14 01:49:43;;;;;;;;;;;9.80;99.90;;;;;;5037491;28;19955;-61
2024/03/14 01:52:08;;;;;;;;;;;9.80;99.90;;;;;;5037932;28;20388;-60
2024/03/14 01:54:35;;;;;;;;;;;9.70;99.90;;;;;;5031206;28;19940;-61
2024/03/14 01:57:01;;;;;;;;;;;9.70;99.90;;;;;;5035594;28;19913;-59
2024/03/14 01:59:27;;;;;;;;;;;9.70;99.90;;;;;;5045627;28;19913;-59
2024/03/14 02:02:02;;;;;;;;;;;9.70;99.90;;;;;;5029667;28;19913;-59
2024/03/14 02:04:31;;;;;;;;;;;9.70;99.90;;;;;;5029379;28;19927;-60
2024/03/14 02:07:03;;;;;;;;;;;9.70;99.90;;;;;;5029557;28;20009;-58
2024/03/14 02:09:28;;;;;;;;;;;9.70;99.90;;;;;;5037380;28;19996;-61
2024/03/14 02:11:54;;;;;;;;;;;9.70;99.90;;;;;;5042564;28;19999;-60
2024/03/14 02:14:20;;;;;;;;;;;9.70;99.90;;;;;;5033215;28;19909;-59
2024/03/14 02:16:45;;;;;;;;;;;9.80;99.90;;;;;;5041070;28;19911;-58
2024/03/14 02:19:11;;;;;;;;;;;9.80;99.90;;;;;;5041014;28;20354;-60
2024/03/14 02:21:38;;;;;;;;;;;9.80;99.90;;;;;;5030711;28;19905;-62
2024/03/14 02:24:04;;;;;;;;;;;9.70;99.90;;;;;;5037514;28;19965;-60
2024/03/14 02:26:29;;;;;;;;;;;9.70;99.90;;;;;;5030213;28;20387;-61
2024/03/14 02:28:55;;;;;;;;;;;9.70;99.90;;;;;;5036110;28;19912;-61
2024/03/14 02:31:20;;;;;;;;;;;9.70;99.90;;;;;;5037446;28;19908;-61
2024/03/14 02:33:46;;;;;;;;;;;9.70;99.90;;;;;;5029157;28;19956;-61
2024/03/14 02:36:11;;;;;;;;;;;9.70;99.90;;;;;;5029375;28;19920;-60
2024/03/14 02:38:37;;;;;;;;;;;9.70;99.90;;;;;;5028616;28;19943;-61
2024/03/14 02:41:03;;;;;;;;;;;9.70;99.90;;;;;;5037745;28;19958;-61
2024/03/14 02:43:28;;;;;;;;;;;9.80;99.90;;;;;;5037429;28;19916;-59
2024/03/14 02:45:54;;;;;;;;;;;9.80;99.90;;;;;;5034085;28;19920;-60
2024/03/14 02:48:19;;;;;;;;;;;9.70;99.90;;;;;;5048588;28;20368;-59
2024/03/14 02:50:45;;;;;;;;;;;9.70;99.90;;;;;;5033032;28;19908;-59
2024/03/14 02:53:13;;;;;;;;;;;9.70;99.90;;;;;;5040934;28;19970;-61
2024/03/14 02:55:39;;;;;;;;;;;9.60;99.90;;;;;;5040931;28;20064;-60
2024/03/14 02:58:06;;;;;;;;;;;9.60;99.90;;;;;;5036249;28;20388;-61
2024/03/14 03:00:32;;;;;;;;;;;9.60;99.90;;;;;;5042241;28;19951;-62
2024/03/14 03:02:58;;;;;;;;;;;9.60;99.90;;;;;;5047785;28;20334;-62
2024/03/14 03:05:23;;;;;;;;;;;9.60;99.90;;;;;;5032393;28;19909;-61
2024/03/14 03:07:49;;;;;;;;;;;9.70;99.90;;;;;;5035416;28;19917;-59
2024/03/14 03:10:16;;;;;;;;;;;9.70;99.90;;;;;;5044272;28;19956;-60
2024/03/14 03:12:42;;;;;;;;;;;9.70;99.90;;;;;;5041648;28;19916;-61
2024/03/14 03:15:10;;;;;;;;;;;9.60;99.90;;;;;;5032374;28;19905;-61
2024/03/14 03:17:38;;;;;;;;;;;9.60;99.90;;;;;;5032293;28;19910;-60
2024/03/14 03:20:10;;;;;;;;;;;9.60;99.90;;;;;;5046432;28;19942;-60
2024/03/14 03:23:06;;;;;;;;;;;9.70;99.90;;;;;;5035755;28;19943;-61
2024/03/14 03:25:22;;;;;;;;;;;9.70;99.90;;;;;;5035422;28;19924;-60
2024/03/14 03:27:47;;;;;;;;;;;9.60;99.90;;;;;;5031681;28;20496;-61
2024/03/14 03:30:13;;;;;;;;;;;9.60;99.90;;;;;;5039321;28;19944;-61
2024/03/14 03:32:39;;;;;;;;;;;9.60;99.90;;;;;;5041425;28;19909;-60
2024/03/14 03:35:04;;;;;;;;;;;9.50;99.90;;;;;;5040469;28;19920;-59
2024/03/14 03:37:30;;;;;;;;;;;9.50;99.90;;;;;;5040237;28;19936;-60
2024/03/14 03:39:56;;;;;;;;;;;9.50;99.90;;;;;;5031645;28;19913;-61
2024/03/14 03:42:22;;;;;;;;;;;9.50;99.90;;;;;;5040196;28;19934;-60
2024/03/14 03:44:49;;;;;;;;;;;9.50;99.90;;;;;;5042448;28;20003;-59
2024/03/14 03:47:17;;;;;;;;;;;9.50;99.90;;;;;;5051514;28;19917;-60
2024/03/14 03:49:43;;;;;;;;;;;9.50;99.90;;;;;;5040069;28;19975;-59
2024/03/14 03:52:08;;;;;;;;;;;9.50;99.90;;;;;;5038243;28;19912;-61
2024/03/14 03:54:34;;;;;;;;;;;9.50;99.90;;;;;;5043256;28;20517;-59
2024/03/14 03:56:59;;;;;;;;;;;9.40;99.90;;;;;;5038306;28;20035;-61
2024/03/14 03:59:25;;;;;;;;;;;9.40;99.90;;;;;;5039473;28;20041;-59
2024/03/14 04:01:50;;;;;;;;;;;9.40;99.90;;;;;;5031593;28;19909;-60
2024/03/14 04:04:17;;;;;;;;;;;9.40;99.90;;;;;;5031339;28;19979;-61
2024/03/14 04:06:43;;;;;;;;;;;9.40;99.90;;;;;;5048021;28;20003;-60
2024/03/14 04:09:14;;;;;;;;;;;9.40;99.90;;;;;;5038528;28;20432;-61
2024/03/14 04:11:42;;;;;;;;;;;9.40;99.90;;;;;;5031689;28;19917;-60
2024/03/14 04:14:09;;;;;;;;;;;9.40;99.90;;;;;;5039686;28;19909;-60
2024/03/14 04:16:35;;;;;;;;;;;9.50;99.90;;;;;;5039335;28;19947;-60
2024/03/14 04:19:00;;;;;;;;;;;9.50;99.90;;;;;;5030792;28;19916;-60
2024/03/14 04:21:26;;;;;;;;;;;9.50;99.90;;;;;;5039928;28;19919;-59
2024/03/14 04:23:51;;;;;;;;;;;9.50;99.90;;;;;;5042810;28;19908;-61
2024/03/14 04:26:17;;;;;;;;;;;9.50;99.90;;;;;;5035270;28;19913;-60
2024/03/14 04:28:44;;;;;;;;;;;9.50;99.90;;;;;;5041471;28;20507;-61
2024/03/14 04:31:09;;;;;;;;;;;9.40;99.90;;;;;;5036385;28;19943;-60
2024/03/14 04:33:35;;;;;;;;;;;9.40;99.90;;;;;;5038977;28;20178;-61
2024/03/14 04:36:03;;;;;;;;;;;9.40;99.90;;;;;;5039406;28;19946;-59
2024/03/14 04:38:28;;;;;;;;;;;9.40;99.90;;;;;;5030272;28;19940;-60
2024/03/14 04:40:56;;;;;;;;;;;9.40;99.90;;;;;;5035134;28;20459;-60
2024/03/14 04:43:25;;;;;;;;;;;9.40;99.90;;;;;;5042534;28;19954;-61
2024/03/14 04:45:52;;;;;;;;;;;9.40;99.90;;;;;;5042597;28;20298;-62
2024/03/14 04:48:17;;;;;;;;;;;9.40;99.90;;;;;;5042801;28;19913;-61
2024/03/14 04:50:46;;;;;;;;;;;9.40;99.90;;;;;;5041650;28;19951;-61
2024/03/14 04:53:12;;;;;;;;;;;9.40;99.90;;;;;;5043938;28;19913;-60
2024/03/14 04:55:39;;;;;;;;;;;9.40;99.90;;;;;;5030422;28;19990;-61
2024/03/14 04:58:06;;;;;;;;;;;9.30;99.90;;;;;;5038268;28;19997;-61
2024/03/14 05:00:31;;;;;;;;;;;9.30;99.90;;;;;;5038707;28;19981;-61
2024/03/14 05:02:58;;;;;;;;;;;9.30;99.90;;;;;;5030766;28;19936;-61
2024/03/14 05:05:24;;;;;;;;;;;9.30;99.90;;;;;;5038626;28;20343;-59
2024/03/14 05:07:50;;;;;;;;;;;9.20;99.90;;;;;;5029675;28;19958;-61
2024/03/14 05:10:18;;;;;;;;;;;9.20;99.90;;;;;;5038646;28;19920;-60
2024/03/14 05:12:46;;;;;;;;;;;9.20;99.90;;;;;;5030205;28;19974;-59
2024/03/14 05:15:12;;;;;;;;;;;9.20;99.90;;;;;;5038458;28;19944;-61
2024/03/14 05:17:39;;;;;;;;;;;9.20;99.90;;;;;;5038218;28;19989;-61
2024/03/14 05:20:05;;;;;;;;;;;9.20;99.90;;;;;;5029352;28;19913;-61
2024/03/14 05:22:32;;;;;;;;;;;9.10;99.90;;;;;;5047500;28;19949;-62
2024/03/14 05:24:58;;;;;;;;;;;9.10;99.90;;;;;;5037110;28;19939;-60
2024/03/14 05:27:27;;;;;;;;;;;9.10;99.90;;;;;;5038149;28;19920;-61
2024/03/14 05:29:52;;;;;;;;;;;9.20;99.90;;;;;;5037612;28;20003;-60
2024/03/14 05:32:20;;;;;;;;;;;9.20;99.90;;;;;;5030059;28;20417;-61
2024/03/14 05:34:46;;;;;;;;;;;9.20;99.90;;;;;;5046524;28;19905;-61
2024/03/14 05:37:12;;;;;;;;;;;9.20;99.90;;;;;;5029852;28;20034;-61
2024/03/14 05:39:37;;;;;;;;;;;9.20;99.90;;;;;;5037943;28;20287;-61
2024/03/14 05:42:02;;;;;;;;;;;9.20;99.90;;;;;;5029997;28;19912;-60
2024/03/14 05:44:28;;;;;;;;;;;9.20;99.90;;;;;;5030097;28;19955;-61
2024/03/14 05:46:53;;;;;;;;;;;9.20;99.90;;;;;;5037425;28;20026;-59
2024/03/14 05:49:19;;;;;;;;;;;9.20;99.90;;;;;;5029321;28;20257;-60
2024/03/14 05:51:44;;;;;;;;;;;9.10;99.90;;;;;;5037938;28;19920;-60
2024/03/14 05:54:10;;;;;;;;;;;9.20;99.90;;;;;;5029778;28;20434;-61
2024/03/14 05:56:36;;;;;;;;;;;9.20;99.90;;;;;;5029054;28;19951;-62
2024/03/14 05:59:03;;;;;;;;;;;9.20;99.90;;;;;;5033542;28;19912;-61
2024/03/14 06:01:29;;;;;;;;;;;9.20;99.90;;;;;;5031846;28;19924;-61
2024/03/14 06:03:54;;;;;;;;;;;9.20;99.90;;;;;;5029090;28;19920;-61
2024/03/14 06:06:19;;;;;;;;;;;9.20;99.90;;;;;;5044776;28;19947;-61
2024/03/14 06:08:45;;;;;;;;;;;9.20;99.90;;;;;;5028779;28;19913;-61
2024/03/14 06:11:13;;;;;;;;;;;9.10;99.90;;;;;;5035790;28;19943;-62
2024/03/14 06:13:40;;;;;;;;;;;9.20;99.90;;;;;;5040684;28;19923;-61
2024/03/14 06:16:07;;;;;;;;;;;9.10;99.90;;;;;;5043361;28;20332;-61
2024/03/14 06:18:33;;;;;;;;;;;9.10;99.90;;;;;;5037840;28;19950;-61
2024/03/14 06:20:59;;;;;;;;;;;9.20;99.90;;;;;;5036209;28;19909;-61
2024/03/14 06:23:25;;;;;;;;;;;9.20;99.90;;;;;;5045377;28;19917;-59
2024/03/14 06:25:51;;;;;;;;;;;9.10;99.90;;;;;;5028790;28;19916;-61
2024/03/14 06:28:16;;;;;;;;;;;9.20;99.90;;;;;;5028468;28;19905;-60
2024/03/14 06:30:42;;;;;;;;;;;9.20;99.90;;;;;;5047839;28;19959;-60
2024/03/14 06:33:07;;;;;;;;;;;9.10;99.90;;;;;;5050579;28;20300;-59
2024/03/14 06:35:34;;;;;;;;;;;9.10;99.90;;;;;;5035968;28;19924;-61
2024/03/14 06:37:59;;;;;;;;;;;9.00;99.90;;;;;;5043767;28;19914;-61
2024/03/14 06:40:25;;;;;;;;;;;8.90;99.90;;;;;;5044263;28;20288;-59
2024/03/14 06:42:50;;;;;;;;;;;9.00;99.90;;;;;;5040487;28;20023;-60
2024/03/14 06:45:16;;;;;;;;;;;8.90;99.90;;;;;;5039374;28;19924;-60
2024/03/14 06:47:44;;;;;;;;;;;8.90;99.90;;;;;;5033503;28;19916;-61
2024/03/14 06:50:12;;;;;;;;;;;9.00;99.90;;;;;;5032294;28;20066;-59
2024/03/14 06:52:38;;;;;;;;;;;9.00;99.90;;;;;;5039079;28;19920;-60
2024/03/14 06:55:04;;;;;;;;;;;9.10;99.90;;;;;;5045890;28;19980;-61
2024/03/14 06:57:29;;;;;;;;;;;9.20;99.90;;;;;;5043842;28;19909;-61
2024/03/14 06:59:54;;;;;;;;;;;9.30;99.90;;;;;;5051949;28;20387;-61
2024/03/14 07:02:21;;;;;;;;;;;9.30;99.90;;;;;;5036035;28;19924;-60
2024/03/14 07:04:48;;;;;;;;;;;9.30;99.90;;;;;;5048301;28;19946;-59
2024/03/14 07:07:15;;;;;;;;;;;9.40;99.90;;;;;;5040313;28;19924;-61
2024/03/14 07:09:41;;;;;;;;;;;9.50;99.90;;;;;;5031639;28;19909;-60
2024/03/14 07:12:09;;;;;;;;;;;9.70;99.90;;;;;;5040296;28;20049;-60
2024/03/14 07:14:35;;;;;;;;;;;9.70;99.90;;;;;;5030911;28;19913;-60
2024/03/14 07:17:02;;;;;;;;;;;9.80;99.90;;;;;;5031996;28;19920;-60
2024/03/14 07:19:27;;;;;;;;;;;9.80;99.90;;;;;;5039950;28;19930;-61
2024/03/14 07:21:56;;;;;;;;;;;9.90;99.90;;;;;;5051805;28;19913;-61
2024/03/14 07:24:23;;;;;;;;;;;10.00;99.90;;;;;;5035856;28;19991;-60
2024/03/14 07:26:48;;;;;;;;;;;10.10;99.90;;;;;;5031695;28;19945;-61
2024/03/14 07:29:14;;;;;;;;;;;10.10;99.90;;;;;;5037890;28;19952;-59
2024/03/14 07:31:43;;;;;;;;;;;10.20;99.90;;;;;;5035110;28;20012;-61
2024/03/14 07:34:10;;;;;;;;;;;10.30;99.90;;;;;;5043324;28;19951;-61
2024/03/14 07:36:38;;;;;;;;;;;10.30;99.90;;;;;;5043264;28;19913;-61
2024/03/14 07:39:04;;;;;;;;;;;10.50;99.90;;;;;;5046205;28;19916;-61
2024/03/14 07:41:30;;;;;;;;;;;10.40;99.90;;;;;;5039919;28;19908;-60
2024/03/14 07:43:55;;;;;;;;;;;10.50;99.90;;;;;;5035058;28;19924;-61
2024/03/14 07:46:21;;;;;;;;;;;10.60;99.90;;;;;;5051283;28;19947;-60
2024/03/14 07:48:49;;;;;;;;;;;10.60;99.90;;;;;;5031287;28;20495;-61
2024/03/14 07:51:15;;;;;;;;;;;10.70;99.90;;;;;;5031365;28;19920;-61
2024/03/14 07:53:40;;;;;;;;;;;10.90;99.90;;;;;;5030897;28;19909;-61
2024/03/14 07:56:09;;;;;;;;;;;11.20;99.90;;;;;;5031449;28;20464;-61
2024/03/14 07:58:36;;;;;;;;;;;11.40;99.90;;;;;;5032087;28;20369;-60
2024/03/14 08:01:07;;;;;;;;;;;11.40;99.90;;;;;;5038408;28;19909;-61
2024/03/14 08:03:33;;;;;;;;;;;11.60;99.90;;;;;;5047251;28;19943;-60
2024/03/14 08:05:59;;;;;;;;;;;11.80;99.90;;;;;;5017741;28;19919;-61
2024/03/14 08:08:24;;;;;;;;;;;12.00;99.90;;;;;;5050055;28;19920;-61
2024/03/14 08:10:50;;;;;;;;;;;12.10;99.90;;;;;;5039504;28;19969;-61
2024/03/14 08:13:20;;;;;;;;;;;12.10;99.90;;;;;;5031129;28;20460;-61
2024/03/14 08:15:59;;;;;;;;;;;11.90;99.90;;;;;;5041612;28;20004;-60
2024/03/14 08:18:25;;;;;;;;;;;11.90;99.90;;;;;;5050194;28;20055;-61
2024/03/14 08:20:52;;;;;;;;;;;11.90;99.90;;;;;;5039179;28;20445;-61
2024/03/14 08:23:20;;;;;;;;;;;12.00;99.90;;;;;;5030930;28;19913;-61
2024/03/14 08:25:47;;;;;;;;;;;11.80;99.90;;;;;;5030381;28;20007;-61
2024/03/14 08:28:13;;;;;;;;;;;11.80;99.90;;;;;;5038342;28;19908;-60
2024/03/14 08:30:39;;;;;;;;;;;12.00;99.90;;;;;;5038676;28;20348;-60
2024/03/14 08:33:07;;;;;;;;;;;12.10;99.90;;;;;;5035846;28;20014;-59
2024/03/14 08:35:33;;;;;;;;;;;12.20;99.90;;;;;;5041282;28;19982;-61
2024/03/14 08:37:58;;;;;;;;;;;12.40;99.90;;;;;;5036971;28;20325;-61
2024/03/14 08:40:24;;;;;;;;;;;12.60;99.90;;;;;;5055807;28;19951;-61
2024/03/14 08:42:49;;;;;;;;;;;12.90;99.90;;;;;;5056598;28;19943;-61
2024/03/14 08:45:15;;;;;;;;;;;13.10;99.90;;;;;;5035055;28;19921;-61
2024/03/14 08:47:42;;;;;;;;;;;13.50;99.90;;;;;;5045758;28;19928;-61
2024/03/14 08:50:09;;;;;;;;;;;13.70;99.90;;;;;;5037256;28;20351;-61
2024/03/14 08:52:37;;;;;;;;;;;13.70;99.90;;;;;;5030375;28;19913;-62
2024/03/14 08:55:23;;;;;;;;;;;13.60;99.90;;;;;;5029216;28;19913;-61
2024/03/14 08:57:51;;;;;;;;;;;13.40;99.90;;;;;;5029165;28;19913;-61
2024/03/14 09:00:17;;;;;;;;;;;13.40;99.90;;;;;;5036806;28;20283;-61
2024/03/14 09:02:43;;;;;;;;;;;13.50;99.90;;;;;;5031104;28;19913;-61
2024/03/14 09:05:11;;;;;;;;;;;13.50;99.90;;;;;;5035536;28;20062;-61
2024/03/14 09:07:40;;;;;;;;;;;13.20;99.90;;;;;;5039885;28;20345;-62
2024/03/14 09:10:15;;;;;;;;;;;12.80;99.90;;;;;;5037442;28;19925;-61
2024/03/14 09:12:45;;;;;;;;;;;12.70;99.90;;;;;;5029964;28;19909;-61
2024/03/14 09:15:12;;;;;;;;;;;12.60;99.90;;;;;;5044015;28;19941;-60
2024/03/14 09:17:37;;;;;;;;;;;12.80;99.90;;;;;;5041280;28;19904;-61
2024/03/14 09:20:08;;;;;;;;;;;13.10;99.90;;;;;;5048998;28;19916;-61
2024/03/14 09:22:36;;;;;;;;;;;13.40;99.90;;;;;;5048318;28;20395;-62
2024/03/14 09:25:02;;;;;;;;;;;13.70;99.90;;;;;;5034388;28;19909;-61
2024/03/14 09:27:28;;;;;;;;;;;14.50;99.90;;;;;;5040995;28;19923;-60
2024/03/14 09:29:55;;;;;;;;;;;15.00;99.90;;;;;;5040909;28;20428;-61
2024/03/14 09:32:23;;;;;;;;;;;15.50;99.90;;;;;;5041837;28;20335;-61
2024/03/14 09:34:49;;;;;;;;;;;16.10;99.90;;;;;;5037460;28;20349;-60
2024/03/14 09:37:16;;;;;;;;;;;16.60;99.90;;;;;;5019190;28;19917;-61
2024/03/14 09:39:42;;;;;;;;;;;17.40;99.90;;;;;;5039158;28;19910;-61
2024/03/14 09:42:08;;;;;;;;;;;18.00;99.90;;;;;;5035256;28;19920;-61
2024/03/14 09:44:37;;;;;;;;;;;18.20;99.90;;;;;;5029467;28;19913;-61
2024/03/14 09:47:07;;;;;;;;;;;18.00;99.90;;;;;;5040518;28;19913;-61
2024/03/14 09:49:33;;;;;;;;;;;17.90;99.90;;;;;;5031845;28;19905;-60
2024/03/14 09:51:58;;;;;;;;;;;17.80;99.90;;;;;;5036322;28;19916;-61
2024/03/14 09:54:26;;;;;;;;;;;17.60;99.90;;;;;;5036716;28;19913;-60
2024/03/14 09:56:52;;;;;;;;;;;17.50;99.90;;;;;;5040324;28;20379;-60
2024/03/14 09:59:18;;;;;;;;;;;17.10;99.90;;;;;;5041385;28;19941;-60
2024/03/14 10:01:44;;;;;;;;;;;16.90;99.90;;;;;;5030808;28;19996;-60
2024/03/14 10:04:11;;;;;;;;;;;16.90;99.90;;;;;;5040318;28;19980;-61
2024/03/14 10:06:42;;;;;;;;;;;17.20;99.90;;;;;;5031723;28;20360;-61
2024/03/14 10:09:11;;;;;;;;;;;17.60;99.90;;;;;;5032361;28;19909;-61
2024/03/14 10:11:38;;;;;;;;;;;17.70;99.90;;;;;;5040097;28;19995;-61
2024/03/14 10:14:06;;;;;;;;;;;17.20;99.90;;;;;;5032647;28;19920;-59
2024/03/14 10:16:32;;;;;;;;;;;17.00;99.90;;;;;;5033159;28;19908;-59
2024/03/14 10:18:58;;;;;;;;;;;17.10;99.90;;;;;;5039564;28;20031;-59
2024/03/14 10:21:24;;;;;;;;;;;17.40;99.90;;;;;;5048909;28;19927;-60
2024/03/14 10:23:50;;;;;;;;;;;17.90;99.90;;;;;;5041163;28;20031;-60
2024/03/14 10:26:16;;;;;;;;;;;18.30;99.90;;;;;;5032252;28;19927;-60
2024/03/14 10:28:41;;;;;;;;;;;18.30;99.90;;;;;;5033784;28;20011;-61
2024/03/14 10:31:07;;;;;;;;;;;18.30;99.90;;;;;;5046937;28;20478;-61
2024/03/14 10:33:33;;;;;;;;;;;18.10;99.90;;;;;;5041029;28;19912;-61
2024/03/14 10:35:59;;;;;;;;;;;18.00;99.90;;;;;;5039935;28;19909;-61
2024/03/14 10:38:25;;;;;;;;;;;17.40;99.90;;;;;;5039954;28;20413;-60
2024/03/14 10:40:56;;;;;;;;;;;17.30;99.90;;;;;;5048811;28;19916;-61
2024/03/14 10:43:22;;;;;;;;;;;16.90;99.90;;;;;;5031914;28;19916;-60
2024/03/14 10:45:52;;;;;;;;;;;16.80;99.90;;;;;;5040270;28;19920;-60
2024/03/14 10:48:22;;;;;;;;;;;16.50;99.90;;;;;;5046459;28;19963;-59
2024/03/14 10:50:50;;;;;;;;;;;16.50;99.90;;;;;;5043562;28;19909;-60
2024/03/14 10:53:16;;;;;;;;;;;16.60;99.90;;;;;;5051377;28;20359;-60
2024/03/14 10:55:42;;;;;;;;;;;16.70;99.90;;;;;;5033173;28;19916;-61
2024/03/14 10:58:08;;;;;;;;;;;16.80;99.90;;;;;;5036646;28;20354;-61
2024/03/14 11:00:34;;;;;;;;;;;17.20;99.90;;;;;;5042542;28;20353;-63
2024/03/14 11:03:01;;;;;;;;;;;17.70;99.90;;;;;;5044439;28;20011;-61
2024/03/14 11:05:27;;;;;;;;;;;17.80;99.90;;;;;;5043252;28;19966;-60
2024/03/14 11:07:56;;;;;;;;;;;17.90;99.90;;;;;;5039485;28;20308;-60
2024/03/14 11:10:28;;;;;;;;;;;18.00;99.90;;;;;;5039151;28;19904;-61
2024/03/14 11:13:05;;;;;;;;;;;18.00;99.90;;;;;;5039968;28;19909;-61
2024/03/14 11:15:36;;;;;;;;;;;18.20;99.90;;;;;;5039584;28;19965;-61
2024/03/14 11:18:02;;;;;;;;;;;18.40;99.90;;;;;;5030504;28;19913;-59
2024/03/14 11:20:32;;;;;;;;;;;18.30;99.90;;;;;;5039710;28;20429;-62
2024/03/14 11:22:59;;;;;;;;;;;18.50;99.90;;;;;;5043769;28;20450;-60
2024/03/14 11:25:25;;;;;;;;;;;18.20;99.90;;;;;;5043341;28;19952;-59
2024/03/14 11:27:52;;;;;;;;;;;18.10;99.90;;;;;;5050183;28;19916;-60
2024/03/14 11:30:19;;;;;;;;;;;18.00;99.90;;;;;;5036291;28;19920;-60
2024/03/14 11:32:55;;;;;;;;;;;18.20;99.90;;;;;;5050241;28;19912;-60
2024/03/14 11:35:26;;;;;;;;;;;18.30;99.90;;;;;;5043936;28;19943;-61
2024/03/14 11:37:52;;;;;;;;;;;18.50;99.90;;;;;;5030434;28;19908;-61
2024/03/14 11:40:17;;;;;;;;;;;18.60;99.90;;;;;;5039271;28;19913;-59
2024/03/14 11:42:51;;;;;;;;;;;18.60;99.90;;;;;;5039421;28;19920;-61
2024/03/14 11:45:17;;;;;;;;;;;18.50;99.90;;;;;;5045716;28;19917;-59
2024/03/14 11:47:42;;;;;;;;;;;18.40;99.90;;;;;;5032159;28;19917;-61
2024/03/14 11:50:08;;;;;;;;;;;18.30;99.90;;;;;;5044087;28;19921;-60
2024/03/14 11:52:35;;;;;;;;;;;18.20;99.90;;;;;;5041767;28;19913;-62
2024/03/14 11:55:05;;;;;;;;;;;17.70;99.90;;;;;;5034888;28;19912;-60
2024/03/14 11:57:30;;;;;;;;;;;17.70;99.90;;;;;;5050298;28;19912;-60
2024/03/14 11:59:56;;;;;;;;;;;18.10;99.90;;;;;;5030230;28;19909;-60
2024/03/14 12:02:23;;;;;;;;;;;18.20;99.90;;;;;;5046275;28;19912;-60
2024/03/14 12:04:49;;;;;;;;;;;18.20;99.90;;;;;;5042260;28;19936;-60
2024/03/14 12:07:14;;;;;;;;;;;18.30;99.90;;;;;;5035826;28;19985;-58
2024/03/14 12:09:41;;;;;;;;;;;18.60;99.90;;;;;;5038137;28;20038;-60
2024/03/14 12:12:07;;;;;;;;;;;18.80;99.90;;;;;;5030789;28;20391;-61
2024/03/14 12:14:33;;;;;;;;;;;19.20;99.90;;;;;;5046803;28;19948;-61
2024/03/14 12:17:00;;;;;;;;;;;19.00;99.90;;;;;;5030565;28;19960;-61
2024/03/14 12:19:25;;;;;;;;;;;18.80;99.90;;;;;;5029970;28;19918;-60
2024/03/14 12:21:54;;;;;;;;;;;18.70;99.90;;;;;;5041389;28;19921;-61
2024/03/14 12:24:20;;;;;;;;;;;18.60;99.90;;;;;;5043430;28;19913;-60
2024/03/14 12:26:46;;;;;;;;;;;18.40;99.90;;;;;;5038510;28;19921;-59
2024/03/14 12:29:12;;;;;;;;;;;18.20;99.90;;;;;;5029644;28;20316;-60
2024/03/14 12:31:37;;;;;;;;;;;18.10;99.90;;;;;;5030044;28;19912;-59
2024/03/14 12:34:03;;;;;;;;;;;18.00;99.90;;;;;;5038491;28;20318;-60
2024/03/14 12:36:30;;;;;;;;;;;17.70;99.90;;;;;;5037934;28;20377;-60
2024/03/14 12:38:56;;;;;;;;;;;17.70;99.90;;;;;;5030049;28;19952;-60
2024/03/14 12:41:21;;;;;;;;;;;17.60;99.90;;;;;;5038628;28;19951;-59
2024/03/14 12:43:47;;;;;;;;;;;17.30;99.90;;;;;;5040506;28;19913;-60
2024/03/14 12:46:13;;;;;;;;;;;17.20;99.90;;;;;;5035773;28;19913;-60
2024/03/14 12:48:39;;;;;;;;;;;17.30;99.90;;;;;;5029577;28;19913;-61
2024/03/14 12:51:12;;;;;;;;;;;17.40;99.90;;;;;;5030350;28;19920;-60
2024/03/14 12:53:37;;;;;;;;;;;17.30;99.90;;;;;;5029777;28;19963;-61
2024/03/14 12:56:04;;;;;;;;;;;17.20;99.90;;;;;;5037470;28;19996;-60
2024/03/14 12:58:30;;;;;;;;;;;17.10;99.90;;;;;;5045915;28;20271;-58
2024/03/14 13:00:58;;;;;;;;;;;17.10;99.90;;;;;;5041664;28;20538;-60
2024/03/14 13:03:24;;;;;;;;;;;17.30;99.90;;;;;;5024439;28;20336;-58
2024/03/14 13:05:50;;;;;;;;;;;17.30;99.90;;;;;;5040797;28;19913;-61
2024/03/14 13:08:17;;;;;;;;;;;17.40;99.90;;;;;;5034306;28;19909;-59
2024/03/14 13:10:42;;;;;;;;;;;17.40;99.90;;;;;;5029831;28;20325;-59
2024/03/14 13:13:11;;;;;;;;;;;17.50;99.90;;;;;;5029736;28;19943;-61
2024/03/14 13:15:39;;;;;;;;;;;17.60;99.90;;;;;;5046082;28;19931;-61
2024/03/14 13:18:12;;;;;;;;;;;17.90;99.90;;;;;;5033812;28;19908;-58
2024/03/14 13:20:39;;;;;;;;;;;18.10;99.90;;;;;;5048156;28;19908;-60
2024/03/14 13:23:05;;;;;;;;;;;18.60;99.90;;;;;;5034283;28;19909;-60
2024/03/14 13:25:33;;;;;;;;;;;19.20;99.90;;;;;;5040445;28;20003;-59
2024/03/14 13:27:59;;;;;;;;;;;19.50;99.90;;;;;;5028260;28;20364;-59
2024/03/14 13:30:24;;;;;;;;;;;19.80;99.90;;;;;;5044872;28;19913;-60
2024/03/14 13:32:56;;;;;;;;;;;20.10;99.90;;;;;;5038005;28;19932;-60
2024/03/14 13:35:23;;;;;;;;;;;20.30;99.90;;;;;;5036179;28;19912;-60
2024/03/14 13:37:49;;;;;;;;;;;20.50;99.90;;;;;;5031990;28;20117;-59
2024/03/14 13:40:16;;;;;;;;;;;20.60;99.90;;;;;;5034638;28;19992;-59
2024/03/14 13:42:44;;;;;;;;;;;20.70;99.90;;;;;;5036728;28;19949;-60
2024/03/14 13:45:16;;;;;;;;;;;20.50;99.90;;;;;;5047723;28;20433;-60
2024/03/14 13:47:45;;;;;;;;;;;20.70;99.90;;;;;;5049053;28;19916;-59
2024/03/14 13:50:12;;;;;;;;;;;21.10;99.90;;;;;;5034295;28;19915;-59
2024/03/14 13:52:38;;;;;;;;;;;21.20;99.90;;;;;;5039980;28;20361;-60
2024/03/14 13:55:16;;;;;;;;;;;21.00;99.90;;;;;;5028828;28;19920;-60
2024/03/14 13:57:42;;;;;;;;;;;21.00;99.90;;;;;;5036972;28;19915;-60
2024/03/14 14:00:11;;;;;;;;;;;21.20;99.90;;;;;;5042071;28;20046;-59
2024/03/14 14:02:37;;;;;;;;;;;21.30;99.90;;;;;;5048022;28;19920;-59
2024/03/14 14:05:04;;;;;;;;;;;21.40;99.90;;;;;;5028541;28;19913;-60
2024/03/14 14:07:31;;;;;;;;;;;21.40;99.90;;;;;;5045199;28;20269;-60
2024/03/14 14:10:00;;;;;;;;;;;21.40;99.90;;;;;;5048135;28;19916;-60
2024/03/14 14:12:25;;;;;;;;;;;21.50;99.90;;;;;;5041023;28;19925;-59
2024/03/14 14:14:52;;;;;;;;;;;21.40;99.90;;;;;;5037053;28;19917;-60
2024/03/14 14:17:19;;;;;;;;;;;21.50;99.90;;;;;;5037070;28;19955;-59
2024/03/14 14:19:45;;;;;;;;;;;21.60;99.90;;;;;;5036090;28;20342;-60
2024/03/14 14:22:12;;;;;;;;;;;21.50;99.90;;;;;;5036951;28;20042;-59